sensor_id;sensor_type;location;lat;lon;timestamp;temperature;humidity
78767;SHT31;68092;51.982;5.680;2023-03-30T00:01:10;15.1;61.1
78767;SHT31;68092;51.982;5.680;2023-03-30T00:03:45;15.1;60.9
78767;SHT31;68092;51.982;5.680;2023-03-30T00:06:16;15.1;61.0
78767;SHT31;68092;51.982;5.680;2023-03-30T00:08:51;15.1;61.1
78767;SHT31;68092;51.982;5.680;2023-03-30T00:11:24;15.1;60.9
78767;SHT31;68092;51.982;5.680;2023-03-30T00:13:54;15.1;60.7
78767;SHT31;68092;51.982;5.680;2023-03-30T00:16:24;15.1;60.9
78767;SHT31;68092;51.982;5.680;2023-03-30T00:18:56;15.1;61.5
78767;SHT31;68092;51.982;5.680;2023-03-30T00:21:25;15.1;61.4
78767;SHT31;68092;51.982;5.680;2023-03-30T00:23:55;15.2;61.6
78767;SHT31;68092;51.982;5.680;2023-03-30T00:26:25;15.2;60.4
78767;SHT31;68092;51.982;5.680;2023-03-30T00:28:55;15.2;60.2
78767;SHT31;68092;51.982;5.680;2023-03-30T00:31:24;15.2;60.1
78767;SHT31;68092;51.982;5.680;2023-03-30T00:33:54;15.2;59.7
78767;SHT31;68092;51.982;5.680;2023-03-30T00:36:24;15.2;59.8
78767;SHT31;68092;51.982;5.680;2023-03-30T00:38:53;15.2;59.9
78767;SHT31;68092;51.982;5.680;2023-03-30T00:41:23;15.2;59.6
78767;SHT31;68092;51.982;5.680;2023-03-30T00:43:56;15.2;59.7
78767;SHT31;68092;51.982;5.680;2023-03-30T00:46:28;15.2;59.6
78767;SHT31;68092;51.982;5.680;2023-03-30T00:49:02;15.2;59.1
78767;SHT31;68092;51.982;5.680;2023-03-30T00:51:35;15.3;59.5
78767;SHT31;68092;51.982;5.680;2023-03-30T00:54:11;15.3;59.4
78767;SHT31;68092;51.982;5.680;2023-03-30T00:56:41;15.3;59.0
78767;SHT31;68092;51.982;5.680;2023-03-30T00:59:11;15.3;58.5
78767;SHT31;68092;51.982;5.680;2023-03-30T01:01:44;15.4;58.5
78767;SHT31;68092;51.982;5.680;2023-03-30T01:04:16;15.4;58.6
78767;SHT31;68092;51.982;5.680;2023-03-30T01:06:48;15.4;58.5
78767;SHT31;68092;51.982;5.680;2023-03-30T01:09:18;15.4;58.5
78767;SHT31;68092;51.982;5.680;2023-03-30T01:11:49;15.4;58.3
78767;SHT31;68092;51.982;5.680;2023-03-30T01:14:18;15.4;58.0
78767;SHT31;68092;51.982;5.680;2023-03-30T01:16:58;15.5;58.3
78767;SHT31;68092;51.982;5.680;2023-03-30T01:21:54;15.5;58.5
78767;SHT31;68092;51.982;5.680;2023-03-30T01:26:05;15.5;58.3
78767;SHT31;68092;51.982;5.680;2023-03-30T01:28:45;15.5;58.6
78767;SHT31;68092;51.982;5.680;2023-03-30T01:32:42;15.6;57.9
78767;SHT31;68092;51.982;5.680;2023-03-30T01:38:14;15.6;57.7
78767;SHT31;68092;51.982;5.680;2023-03-30T01:40:54;15.6;58.0
78767;SHT31;68092;51.982;5.680;2023-03-30T01:43:37;15.6;57.8
78767;SHT31;68092;51.982;5.680;2023-03-30T01:46:19;15.6;57.7
78767;SHT31;68092;51.982;5.680;2023-03-30T01:49:00;15.6;57.6
78767;SHT31;68092;51.982;5.680;2023-03-30T01:51:36;15.6;58.0
78767;SHT31;68092;51.982;5.680;2023-03-30T01:54:12;15.6;57.4
78767;SHT31;68092;51.982;5.680;2023-03-30T01:56:49;15.6;57.8
78767;SHT31;68092;51.982;5.680;2023-03-30T01:59:23;15.6;57.1
78767;SHT31;68092;51.982;5.680;2023-03-30T02:01:58;15.6;56.9
78767;SHT31;68092;51.982;5.680;2023-03-30T02:04:35;15.6;56.5
78767;SHT31;68092;51.982;5.680;2023-03-30T02:07:11;15.6;56.4
78767;SHT31;68092;51.982;5.680;2023-03-30T02:09:45;15.6;57.1
78767;SHT31;68092;51.982;5.680;2023-03-30T02:12:18;15.6;56.9
78767;SHT31;68092;51.982;5.680;2023-03-30T02:14:49;15.6;56.6
78767;SHT31;68092;51.982;5.680;2023-03-30T02:17:21;15.7;56.4
78767;SHT31;68092;51.982;5.680;2023-03-30T02:19:54;15.7;56.4
78767;SHT31;68092;51.982;5.680;2023-03-30T02:22:28;15.7;56.3
78767;SHT31;68092;51.982;5.680;2023-03-30T02:24:58;15.7;56.2
78767;SHT31;68092;51.982;5.680;2023-03-30T02:27:31;15.7;56.1
78767;SHT31;68092;51.982;5.680;2023-03-30T02:30:02;15.7;56.2
78767;SHT31;68092;51.982;5.680;2023-03-30T02:32:40;15.7;56.1
78767;SHT31;68092;51.982;5.680;2023-03-30T02:35:19;15.7;56.3
78767;SHT31;68092;51.982;5.680;2023-03-30T02:38:16;15.7;56.3
78767;SHT31;68092;51.982;5.680;2023-03-30T02:40:59;15.6;56.3
78767;SHT31;68092;51.982;5.680;2023-03-30T02:43:46;15.6;56.4
78767;SHT31;68092;51.982;5.680;2023-03-30T02:46:38;15.6;56.3
78767;SHT31;68092;51.982;5.680;2023-03-30T02:49:18;15.6;56.4
78767;SHT31;68092;51.982;5.680;2023-03-30T02:51:59;15.6;56.5
78767;SHT31;68092;51.982;5.680;2023-03-30T02:54:42;15.6;56.9
78767;SHT31;68092;51.982;5.680;2023-03-30T02:57:26;15.6;56.9
78767;SHT31;68092;51.982;5.680;2023-03-30T03:00:02;15.6;57.2
78767;SHT31;68092;51.982;5.680;2023-03-30T03:02:40;15.6;57.5
78767;SHT31;68092;51.982;5.680;2023-03-30T03:05:13;15.6;57.7
78767;SHT31;68092;51.982;5.680;2023-03-30T03:07:43;15.6;57.9
78767;SHT31;68092;51.982;5.680;2023-03-30T03:10:14;15.6;57.9
78767;SHT31;68092;51.982;5.680;2023-03-30T03:12:44;15.6;58.1
78767;SHT31;68092;51.982;5.680;2023-03-30T03:15:19;15.6;58.4
78767;SHT31;68092;51.982;5.680;2023-03-30T03:17:48;15.6;58.8
78767;SHT31;68092;51.982;5.680;2023-03-30T03:20:21;15.6;58.7
78767;SHT31;68092;51.982;5.680;2023-03-30T03:22:53;15.6;59.0
78767;SHT31;68092;51.982;5.680;2023-03-30T03:25:23;15.6;59.2
78767;SHT31;68092;51.982;5.680;2023-03-30T03:27:57;15.6;59.9
78767;SHT31;68092;51.982;5.680;2023-03-30T03:30:28;15.6;59.9
78767;SHT31;68092;51.982;5.680;2023-03-30T03:33:00;15.6;60.0
78767;SHT31;68092;51.982;5.680;2023-03-30T03:35:29;15.7;60.5
78767;SHT31;68092;51.982;5.680;2023-03-30T03:37:59;15.7;60.7
78767;SHT31;68092;51.982;5.680;2023-03-30T03:40:28;15.7;60.9
78767;SHT31;68092;51.982;5.680;2023-03-30T03:42:58;15.7;61.2
78767;SHT31;68092;51.982;5.680;2023-03-30T03:45:28;15.7;61.2
78767;SHT31;68092;51.982;5.680;2023-03-30T03:47:57;15.7;61.2
78767;SHT31;68092;51.982;5.680;2023-03-30T03:50:27;15.7;61.4
78767;SHT31;68092;51.982;5.680;2023-03-30T03:52:56;15.7;61.3
78767;SHT31;68092;51.982;5.680;2023-03-30T03:55:26;15.7;61.4
78767;SHT31;68092;51.982;5.680;2023-03-30T03:57:57;15.7;61.4
78767;SHT31;68092;51.982;5.680;2023-03-30T04:00:27;15.7;61.2
78767;SHT31;68092;51.982;5.680;2023-03-30T04:02:57;15.7;61.3
78767;SHT31;68092;51.982;5.680;2023-03-30T04:05:26;15.7;61.2
78767;SHT31;68092;51.982;5.680;2023-03-30T04:07:56;15.7;61.1
78767;SHT31;68092;51.982;5.680;2023-03-30T04:10:27;15.7;61.0
78767;SHT31;68092;51.982;5.680;2023-03-30T04:12:57;15.7;61.0
78767;SHT31;68092;51.982;5.680;2023-03-30T04:15:26;15.7;61.1
78767;SHT31;68092;51.982;5.680;2023-03-30T04:17:56;15.7;61.1
78767;SHT31;68092;51.982;5.680;2023-03-30T04:20:27;15.8;61.1
78767;SHT31;68092;51.982;5.680;2023-03-30T04:22:59;15.8;61.2
78767;SHT31;68092;51.982;5.680;2023-03-30T04:25:30;15.8;61.3
78767;SHT31;68092;51.982;5.680;2023-03-30T04:28:00;15.8;61.4
78767;SHT31;68092;51.982;5.680;2023-03-30T04:30:33;15.8;61.4
78767;SHT31;68092;51.982;5.680;2023-03-30T04:33:02;15.8;61.4
78767;SHT31;68092;51.982;5.680;2023-03-30T04:35:33;15.8;61.5
78767;SHT31;68092;51.982;5.680;2023-03-30T04:38:03;15.8;61.6
78767;SHT31;68092;51.982;5.680;2023-03-30T04:40:34;15.8;61.8
78767;SHT31;68092;51.982;5.680;2023-03-30T04:43:04;15.8;61.8
78767;SHT31;68092;51.982;5.680;2023-03-30T04:45:34;15.8;61.9
78767;SHT31;68092;51.982;5.680;2023-03-30T04:48:04;15.8;61.9
78767;SHT31;68092;51.982;5.680;2023-03-30T04:50:34;15.8;62.1
78767;SHT31;68092;51.982;5.680;2023-03-30T04:53:04;15.8;62.3
78767;SHT31;68092;51.982;5.680;2023-03-30T04:55:33;15.8;63.0
78767;SHT31;68092;51.982;5.680;2023-03-30T04:58:03;15.8;63.6
78767;SHT31;68092;51.982;5.680;2023-03-30T05:00:32;15.8;63.7
78767;SHT31;68092;51.982;5.680;2023-03-30T05:03:02;15.8;64.2
78767;SHT31;68092;51.982;5.680;2023-03-30T05:05:33;15.8;64.2
78767;SHT31;68092;51.982;5.680;2023-03-30T05:08:03;15.8;64.4
78767;SHT31;68092;51.982;5.680;2023-03-30T05:10:33;15.8;64.3
78767;SHT31;68092;51.982;5.680;2023-03-30T05:13:04;15.8;64.5
78767;SHT31;68092;51.982;5.680;2023-03-30T05:15:34;15.8;64.5
78767;SHT31;68092;51.982;5.680;2023-03-30T05:18:04;15.7;65.0
78767;SHT31;68092;51.982;5.680;2023-03-30T05:20:35;15.7;65.3
78767;SHT31;68092;51.982;5.680;2023-03-30T05:23:05;15.6;65.8
78767;SHT31;68092;51.982;5.680;2023-03-30T05:25:36;15.5;66.3
78767;SHT31;68092;51.982;5.680;2023-03-30T05:28:06;15.5;66.5
78767;SHT31;68092;51.982;5.680;2023-03-30T05:30:35;15.4;66.9
78767;SHT31;68092;51.982;5.680;2023-03-30T05:33:05;15.4;66.8
78767;SHT31;68092;51.982;5.680;2023-03-30T05:35:36;15.4;67.0
78767;SHT31;68092;51.982;5.680;2023-03-30T05:38:06;15.3;67.1
78767;SHT31;68092;51.982;5.680;2023-03-30T05:40:36;15.3;67.3
78767;SHT31;68092;51.982;5.680;2023-03-30T05:43:05;15.3;67.3
78767;SHT31;68092;51.982;5.680;2023-03-30T05:45:35;15.3;67.3
78767;SHT31;68092;51.982;5.680;2023-03-30T05:48:05;15.3;67.3
78767;SHT31;68092;51.982;5.680;2023-03-30T05:50:36;15.2;67.3
78767;SHT31;68092;51.982;5.680;2023-03-30T05:53:07;15.2;67.4
78767;SHT31;68092;51.982;5.680;2023-03-30T05:55:37;15.2;67.6
78767;SHT31;68092;51.982;5.680;2023-03-30T05:58:06;15.2;67.8
78767;SHT31;68092;51.982;5.680;2023-03-30T06:00:37;15.1;67.9
78767;SHT31;68092;51.982;5.680;2023-03-30T06:03:09;15.1;67.9
78767;SHT31;68092;51.982;5.680;2023-03-30T06:05:46;15.1;67.9
78767;SHT31;68092;51.982;5.680;2023-03-30T06:08:15;15.1;68.1
78767;SHT31;68092;51.982;5.680;2023-03-30T06:10:53;15.1;67.9
78767;SHT31;68092;51.982;5.680;2023-03-30T06:13:24;15.1;67.9
78767;SHT31;68092;51.982;5.680;2023-03-30T06:15:54;15.1;68.0
78767;SHT31;68092;51.982;5.680;2023-03-30T06:18:24;15.1;68.1
78767;SHT31;68092;51.982;5.680;2023-03-30T06:20:55;15.1;68.1
78767;SHT31;68092;51.982;5.680;2023-03-30T06:23:28;15.1;68.1
78767;SHT31;68092;51.982;5.680;2023-03-30T06:25:58;15.1;67.9
78767;SHT31;68092;51.982;5.680;2023-03-30T06:28:28;15.1;67.5
78767;SHT31;68092;51.982;5.680;2023-03-30T06:30:58;15.1;67.2
78767;SHT31;68092;51.982;5.680;2023-03-30T06:33:31;15.1;67.3
78767;SHT31;68092;51.982;5.680;2023-03-30T06:36:00;15.1;67.2
78767;SHT31;68092;51.982;5.680;2023-03-30T06:38:30;15.1;67.3
78767;SHT31;68092;51.982;5.680;2023-03-30T06:41:02;15.1;67.2
78767;SHT31;68092;51.982;5.680;2023-03-30T06:43:35;15.1;67.5
78767;SHT31;68092;51.982;5.680;2023-03-30T06:46:08;15.1;67.4
78767;SHT31;68092;51.982;5.680;2023-03-30T06:48:39;15.1;67.6
78767;SHT31;68092;51.982;5.680;2023-03-30T06:51:10;15.1;67.6
78767;SHT31;68092;51.982;5.680;2023-03-30T06:53:41;15.1;67.3
78767;SHT31;68092;51.982;5.680;2023-03-30T06:56:10;15.1;66.4
78767;SHT31;68092;51.982;5.680;2023-03-30T06:58:40;15.1;66.1
78767;SHT31;68092;51.982;5.680;2023-03-30T07:01:12;15.1;65.7
78767;SHT31;68092;51.982;5.680;2023-03-30T07:03:42;15.1;65.0
78767;SHT31;68092;51.982;5.680;2023-03-30T07:06:11;15.1;65.2
78767;SHT31;68092;51.982;5.680;2023-03-30T07:08:42;15.1;64.5
78767;SHT31;68092;51.982;5.680;2023-03-30T07:11:12;15.1;64.4
78767;SHT31;68092;51.982;5.680;2023-03-30T07:13:41;15.1;65.0
78767;SHT31;68092;51.982;5.680;2023-03-30T07:16:13;15.1;64.4
78767;SHT31;68092;51.982;5.680;2023-03-30T07:18:44;15.1;64.5
78767;SHT31;68092;51.982;5.680;2023-03-30T07:21:13;15.1;65.2
78767;SHT31;68092;51.982;5.680;2023-03-30T07:23:43;15.1;64.7
78767;SHT31;68092;51.982;5.680;2023-03-30T07:26:12;15.1;64.7
78767;SHT31;68092;51.982;5.680;2023-03-30T07:28:43;15.1;65.3
78767;SHT31;68092;51.982;5.680;2023-03-30T07:31:20;15.2;64.6
78767;SHT31;68092;51.982;5.680;2023-03-30T07:33:50;15.2;64.5
78767;SHT31;68092;51.982;5.680;2023-03-30T07:36:19;15.2;64.6
78767;SHT31;68092;51.982;5.680;2023-03-30T07:38:49;15.2;64.4
78767;SHT31;68092;51.982;5.680;2023-03-30T07:41:18;15.2;64.1
78767;SHT31;68092;51.982;5.680;2023-03-30T07:43:49;15.2;63.8
78767;SHT31;68092;51.982;5.680;2023-03-30T07:46:20;15.2;64.3
78767;SHT31;68092;51.982;5.680;2023-03-30T07:48:50;15.3;63.8
78767;SHT31;68092;51.982;5.680;2023-03-30T07:51:19;15.3;63.6
78767;SHT31;68092;51.982;5.680;2023-03-30T07:53:49;15.3;63.3
78767;SHT31;68092;51.982;5.680;2023-03-30T07:56:21;15.3;62.8
78767;SHT31;68092;51.982;5.680;2023-03-30T07:58:51;15.4;62.4
78767;SHT31;68092;51.982;5.680;2023-03-30T08:01:21;15.4;62.4
78767;SHT31;68092;51.982;5.680;2023-03-30T08:03:50;15.4;62.0
78767;SHT31;68092;51.982;5.680;2023-03-30T08:06:20;15.4;61.1
78767;SHT31;68092;51.982;5.680;2023-03-30T08:08:49;15.4;61.2
78767;SHT31;68092;51.982;5.680;2023-03-30T08:11:19;15.5;61.6
78767;SHT31;68092;51.982;5.680;2023-03-30T08:13:49;15.5;61.9
78767;SHT31;68092;51.982;5.680;2023-03-30T08:16:18;15.5;61.8
78767;SHT31;68092;51.982;5.680;2023-03-30T08:18:49;15.6;61.2
78767;SHT31;68092;51.982;5.680;2023-03-30T08:21:21;15.6;60.5
78767;SHT31;68092;51.982;5.680;2023-03-30T08:23:52;15.6;60.7
78767;SHT31;68092;51.982;5.680;2023-03-30T08:26:26;15.7;60.2
78767;SHT31;68092;51.982;5.680;2023-03-30T08:28:57;15.7;60.2
78767;SHT31;68092;51.982;5.680;2023-03-30T08:31:28;15.7;60.1
78767;SHT31;68092;51.982;5.680;2023-03-30T08:33:59;15.7;60.3
78767;SHT31;68092;51.982;5.680;2023-03-30T08:36:30;15.8;60.0
78767;SHT31;68092;51.982;5.680;2023-03-30T08:39:00;15.8;59.9
78767;SHT31;68092;51.982;5.680;2023-03-30T08:46:16;15.8;60.1
78767;SHT31;68092;51.982;5.680;2023-03-30T08:48:48;15.8;59.5
78767;SHT31;68092;51.982;5.680;2023-03-30T08:51:22;15.9;59.7
78767;SHT31;68092;51.982;5.680;2023-03-30T08:53:56;15.9;59.8
78767;SHT31;68092;51.982;5.680;2023-03-30T08:56:30;15.9;59.5
78767;SHT31;68092;51.982;5.680;2023-03-30T08:59:15;15.9;58.8
78767;SHT31;68092;51.982;5.680;2023-03-30T09:01:50;15.9;58.9
78767;SHT31;68092;51.982;5.680;2023-03-30T09:04:27;15.9;58.9
78767;SHT31;68092;51.982;5.680;2023-03-30T09:07:05;15.9;59.0
78767;SHT31;68092;51.982;5.680;2023-03-30T09:09:41;15.9;58.5
78767;SHT31;68092;51.982;5.680;2023-03-30T09:12:26;15.9;59.6
78767;SHT31;68092;51.982;5.680;2023-03-30T09:15:04;15.9;60.2
78767;SHT31;68092;51.982;5.680;2023-03-30T09:17:41;15.9;60.5
78767;SHT31;68092;51.982;5.680;2023-03-30T09:20:23;15.9;61.2
78767;SHT31;68092;51.982;5.680;2023-03-30T09:22:57;15.9;61.9
78767;SHT31;68092;51.982;5.680;2023-03-30T09:25:32;15.9;62.7
78767;SHT31;68092;51.982;5.680;2023-03-30T09:28:11;16.0;63.0
78767;SHT31;68092;51.982;5.680;2023-03-30T09:30:46;16.0;62.8
78767;SHT31;68092;51.982;5.680;2023-03-30T09:33:29;16.1;61.9
78767;SHT31;68092;51.982;5.680;2023-03-30T09:36:10;16.2;61.0
78767;SHT31;68092;51.982;5.680;2023-03-30T09:38:42;16.3;60.1
78767;SHT31;68092;51.982;5.680;2023-03-30T09:41:32;16.4;59.0
78767;SHT31;68092;51.982;5.680;2023-03-30T09:44:20;16.5;59.1
78767;SHT31;68092;51.982;5.680;2023-03-30T09:46:52;16.6;58.0
78767;SHT31;68092;51.982;5.680;2023-03-30T09:49:38;16.7;58.2
78767;SHT31;68092;51.982;5.680;2023-03-30T09:52:20;16.8;56.8
78767;SHT31;68092;51.982;5.680;2023-03-30T09:54:50;16.8;57.9
78767;SHT31;68092;51.982;5.680;2023-03-30T09:57:26;16.9;56.6
78767;SHT31;68092;51.982;5.680;2023-03-30T09:59:58;17.0;56.4
78767;SHT31;68092;51.982;5.680;2023-03-30T10:02:28;17.1;55.0
78767;SHT31;68092;51.982;5.680;2023-03-30T10:05:02;17.2;54.6
78767;SHT31;68092;51.982;5.680;2023-03-30T10:07:35;17.2;55.5
78767;SHT31;68092;51.982;5.680;2023-03-30T10:10:30;17.3;55.2
78767;SHT31;68092;51.982;5.680;2023-03-30T10:13:07;17.4;54.0
78767;SHT31;68092;51.982;5.680;2023-03-30T10:15:41;17.4;54.0
78767;SHT31;68092;51.982;5.680;2023-03-30T10:18:21;17.5;52.9
78767;SHT31;68092;51.982;5.680;2023-03-30T10:20:59;17.6;53.3
78767;SHT31;68092;51.982;5.680;2023-03-30T10:23:33;17.6;52.1
78767;SHT31;68092;51.982;5.680;2023-03-30T10:26:12;17.6;51.6
78767;SHT31;68092;51.982;5.680;2023-03-30T10:28:53;17.6;52.1
78767;SHT31;68092;51.982;5.680;2023-03-30T10:31:26;17.7;51.7
78767;SHT31;68092;51.982;5.680;2023-03-30T10:33:59;17.7;52.0
78767;SHT31;68092;51.982;5.680;2023-03-30T10:36:32;17.7;51.1
78767;SHT31;68092;51.982;5.680;2023-03-30T10:39:11;17.7;51.4
78767;SHT31;68092;51.982;5.680;2023-03-30T10:41:43;17.7;52.3
78767;SHT31;68092;51.982;5.680;2023-03-30T10:44:20;17.7;53.0
78767;SHT31;68092;51.982;5.680;2023-03-30T10:46:54;17.7;51.5
78767;SHT31;68092;51.982;5.680;2023-03-30T10:49:38;17.7;50.6
78767;SHT31;68092;51.982;5.680;2023-03-30T10:52:20;17.7;51.0
78767;SHT31;68092;51.982;5.680;2023-03-30T10:54:56;17.7;52.5
78767;SHT31;68092;51.982;5.680;2023-03-30T10:57:38;17.7;52.1
78767;SHT31;68092;51.982;5.680;2023-03-30T11:00:29;17.8;51.3
78767;SHT31;68092;51.982;5.680;2023-03-30T11:03:07;17.8;51.1
78767;SHT31;68092;51.982;5.680;2023-03-30T11:05:46;17.8;51.2
78767;SHT31;68092;51.982;5.680;2023-03-30T11:08:21;17.9;51.1
78767;SHT31;68092;51.982;5.680;2023-03-30T11:10:55;17.9;51.0
78767;SHT31;68092;51.982;5.680;2023-03-30T11:13:30;17.9;51.8
78767;SHT31;68092;51.982;5.680;2023-03-30T11:16:05;17.9;50.7
78767;SHT31;68092;51.982;5.680;2023-03-30T11:18:41;17.9;52.2
78767;SHT31;68092;51.982;5.680;2023-03-30T11:21:17;17.9;51.4
78767;SHT31;68092;51.982;5.680;2023-03-30T11:23:52;18.0;50.3
78767;SHT31;68092;51.982;5.680;2023-03-30T11:26:29;18.0;49.6
78767;SHT31;68092;51.982;5.680;2023-03-30T11:29:05;18.0;49.2
78767;SHT31;68092;51.982;5.680;2023-03-30T11:31:48;18.1;49.2
78767;SHT31;68092;51.982;5.680;2023-03-30T11:34:32;18.1;49.3
78767;SHT31;68092;51.982;5.680;2023-03-30T11:37:14;18.1;49.2
78767;SHT31;68092;51.982;5.680;2023-03-30T11:39:50;18.1;49.1
78767;SHT31;68092;51.982;5.680;2023-03-30T11:42:24;18.1;49.7
78767;SHT31;68092;51.982;5.680;2023-03-30T11:44:55;18.1;49.9
78767;SHT31;68092;51.982;5.680;2023-03-30T11:47:39;18.1;50.9
78767;SHT31;68092;51.982;5.680;2023-03-30T11:50:23;18.1;49.7
78767;SHT31;68092;51.982;5.680;2023-03-30T11:53:08;18.1;49.0
78767;SHT31;68092;51.982;5.680;2023-03-30T11:55:52;18.1;49.3
78767;SHT31;68092;51.982;5.680;2023-03-30T11:58:33;18.2;49.5
78767;SHT31;68092;51.982;5.680;2023-03-30T12:01:58;18.2;50.0
78767;SHT31;68092;51.982;5.680;2023-03-30T12:04:35;18.3;48.9
78767;SHT31;68092;51.982;5.680;2023-03-30T12:07:18;18.3;49.7
78767;SHT31;68092;51.982;5.680;2023-03-30T12:09:54;18.3;49.8
78767;SHT31;68092;51.982;5.680;2023-03-30T12:12:30;18.4;49.7
78767;SHT31;68092;51.982;5.680;2023-03-30T12:15:14;18.4;49.3
78767;SHT31;68092;51.982;5.680;2023-03-30T12:17:51;18.4;49.3
78767;SHT31;68092;51.982;5.680;2023-03-30T12:20:33;18.5;48.6
78767;SHT31;68092;51.982;5.680;2023-03-30T12:23:20;18.5;49.3
78767;SHT31;68092;51.982;5.680;2023-03-30T12:26:05;18.5;48.7
78767;SHT31;68092;51.982;5.680;2023-03-30T12:28:47;18.5;48.9
78767;SHT31;68092;51.982;5.680;2023-03-30T12:31:23;18.5;49.2
78767;SHT31;68092;51.982;5.680;2023-03-30T12:34:05;18.6;48.9
78767;SHT31;68092;51.982;5.680;2023-03-30T12:36:38;18.6;48.9
78767;SHT31;68092;51.982;5.680;2023-03-30T12:39:19;18.6;48.5
78767;SHT31;68092;51.982;5.680;2023-03-30T12:42:02;18.7;48.9
78767;SHT31;68092;51.982;5.680;2023-03-30T12:44:40;18.7;49.8
78767;SHT31;68092;51.982;5.680;2023-03-30T12:47:34;18.8;49.3
78767;SHT31;68092;51.982;5.680;2023-03-30T12:50:21;18.9;49.5
78767;SHT31;68092;51.982;5.680;2023-03-30T12:53:06;19.0;48.7
78767;SHT31;68092;51.982;5.680;2023-03-30T12:55:44;19.1;48.7
78767;SHT31;68092;51.982;5.680;2023-03-30T13:02:49;19.2;46.9
78767;SHT31;68092;51.982;5.680;2023-03-30T13:05:29;19.2;46.6
78767;SHT31;68092;51.982;5.680;2023-03-30T13:08:05;19.2;47.2
78767;SHT31;68092;51.982;5.680;2023-03-30T13:10:41;19.1;47.1
78767;SHT31;68092;51.982;5.680;2023-03-30T13:13:22;19.1;47.8
78767;SHT31;68092;51.982;5.680;2023-03-30T13:15:53;19.1;47.5
78767;SHT31;68092;51.982;5.680;2023-03-30T13:18:38;19.1;47.6
78767;SHT31;68092;51.982;5.680;2023-03-30T13:21:23;19.1;47.0
78767;SHT31;68092;51.982;5.680;2023-03-30T13:24:03;19.1;47.5
78767;SHT31;68092;51.982;5.680;2023-03-30T13:26:42;19.1;47.0
78767;SHT31;68092;51.982;5.680;2023-03-30T13:29:14;19.0;47.2
78767;SHT31;68092;51.982;5.680;2023-03-30T13:32:02;19.0;48.2
78767;SHT31;68092;51.982;5.680;2023-03-30T13:34:52;18.9;48.5
78767;SHT31;68092;51.982;5.680;2023-03-30T13:37:34;18.9;51.4
78767;SHT31;68092;51.982;5.680;2023-03-30T13:40:16;18.9;51.5
78767;SHT31;68092;51.982;5.680;2023-03-30T13:43:01;18.9;50.5
78767;SHT31;68092;51.982;5.680;2023-03-30T13:45:36;18.9;51.8
78767;SHT31;68092;51.982;5.680;2023-03-30T13:48:15;18.9;51.5
78767;SHT31;68092;51.982;5.680;2023-03-30T13:50:52;19.0;51.2
78767;SHT31;68092;51.982;5.680;2023-03-30T13:53:27;19.0;52.9
78767;SHT31;68092;51.982;5.680;2023-03-30T13:55:59;19.0;53.0
78767;SHT31;68092;51.982;5.680;2023-03-30T13:58:32;19.0;51.5
78767;SHT31;68092;51.982;5.680;2023-03-30T14:01:08;19.0;51.1
78767;SHT31;68092;51.982;5.680;2023-03-30T14:03:41;19.0;51.4
78767;SHT31;68092;51.982;5.680;2023-03-30T14:06:17;19.0;51.2
78767;SHT31;68092;51.982;5.680;2023-03-30T14:09:08;19.1;51.3
78767;SHT31;68092;51.982;5.680;2023-03-30T14:11:41;19.2;49.1
78767;SHT31;68092;51.982;5.680;2023-03-30T14:14:17;19.3;47.9
78767;SHT31;68092;51.982;5.680;2023-03-30T14:16:50;19.5;47.6
78767;SHT31;68092;51.982;5.680;2023-03-30T14:19:24;19.6;48.5
78767;SHT31;68092;51.982;5.680;2023-03-30T14:21:57;19.8;45.8
78767;SHT31;68092;51.982;5.680;2023-03-30T14:24:30;19.9;45.1
78767;SHT31;68092;51.982;5.680;2023-03-30T14:27:05;19.9;44.9
78767;SHT31;68092;51.982;5.680;2023-03-30T14:29:44;20.0;44.9
78767;SHT31;68092;51.982;5.680;2023-03-30T14:32:17;20.0;44.1
78767;SHT31;68092;51.982;5.680;2023-03-30T14:34:53;20.1;44.6
78767;SHT31;68092;51.982;5.680;2023-03-30T14:37:30;20.0;44.1
78767;SHT31;68092;51.982;5.680;2023-03-30T14:40:00;20.0;44.7
78767;SHT31;68092;51.982;5.680;2023-03-30T14:42:32;20.0;44.6
78767;SHT31;68092;51.982;5.680;2023-03-30T14:45:02;20.0;45.0
78767;SHT31;68092;51.982;5.680;2023-03-30T14:47:36;20.0;44.7
78767;SHT31;68092;51.982;5.680;2023-03-30T14:50:11;20.0;45.2
78767;SHT31;68092;51.982;5.680;2023-03-30T14:52:45;20.0;45.0
78767;SHT31;68092;51.982;5.680;2023-03-30T14:55:18;20.0;44.9
78767;SHT31;68092;51.982;5.680;2023-03-30T14:57:50;20.0;44.8
78767;SHT31;68092;51.982;5.680;2023-03-30T15:00:23;20.0;44.5
78767;SHT31;68092;51.982;5.680;2023-03-30T15:02:55;19.9;44.7
78767;SHT31;68092;51.982;5.680;2023-03-30T15:05:28;19.9;44.7
78767;SHT31;68092;51.982;5.680;2023-03-30T15:08:01;19.9;45.0
78767;SHT31;68092;51.982;5.680;2023-03-30T15:10:42;19.9;44.9
78767;SHT31;68092;51.982;5.680;2023-03-30T15:13:19;19.9;44.2
78767;SHT31;68092;51.982;5.680;2023-03-30T15:15:52;19.8;44.3
78767;SHT31;68092;51.982;5.680;2023-03-30T15:18:25;19.8;43.6
78767;SHT31;68092;51.982;5.680;2023-03-30T15:20:58;19.8;43.9
78767;SHT31;68092;51.982;5.680;2023-03-30T15:23:37;19.7;44.2
78767;SHT31;68092;51.982;5.680;2023-03-30T15:26:09;19.6;43.8
78767;SHT31;68092;51.982;5.680;2023-03-30T15:28:44;19.6;44.2
78767;SHT31;68092;51.982;5.680;2023-03-30T15:31:18;19.6;45.2
78767;SHT31;68092;51.982;5.680;2023-03-30T15:33:51;19.6;44.9
78767;SHT31;68092;51.982;5.680;2023-03-30T15:36:24;19.5;44.8
78767;SHT31;68092;51.982;5.680;2023-03-30T15:38:57;19.5;44.2
78767;SHT31;68092;51.982;5.680;2023-03-30T15:41:44;19.5;44.3
78767;SHT31;68092;51.982;5.680;2023-03-30T15:44:19;19.4;44.5
78767;SHT31;68092;51.982;5.680;2023-03-30T15:46:53;19.4;45.5
78767;SHT31;68092;51.982;5.680;2023-03-30T15:49:32;19.3;44.0
78767;SHT31;68092;51.982;5.680;2023-03-30T15:52:10;19.3;44.5
78767;SHT31;68092;51.982;5.680;2023-03-30T15:54:43;19.2;44.6
78767;SHT31;68092;51.982;5.680;2023-03-30T15:57:20;19.2;44.5
78767;SHT31;68092;51.982;5.680;2023-03-30T15:59:55;19.1;44.7
78767;SHT31;68092;51.982;5.680;2023-03-30T16:02:38;19.1;45.0
78767;SHT31;68092;51.982;5.680;2023-03-30T16:05:16;19.0;45.3
78767;SHT31;68092;51.982;5.680;2023-03-30T16:07:46;19.0;45.8
78767;SHT31;68092;51.982;5.680;2023-03-30T16:10:21;19.0;44.8
78767;SHT31;68092;51.982;5.680;2023-03-30T16:12:59;19.0;45.2
78767;SHT31;68092;51.982;5.680;2023-03-30T16:15:30;19.0;45.2
78767;SHT31;68092;51.982;5.680;2023-03-30T16:18:01;19.0;44.7
78767;SHT31;68092;51.982;5.680;2023-03-30T16:20:32;18.9;44.4
78767;SHT31;68092;51.982;5.680;2023-03-30T16:23:01;18.9;45.1
78767;SHT31;68092;51.982;5.680;2023-03-30T16:25:34;18.9;45.3
78767;SHT31;68092;51.982;5.680;2023-03-30T16:28:03;18.9;45.1
78767;SHT31;68092;51.982;5.680;2023-03-30T16:30:36;18.8;44.8
78767;SHT31;68092;51.982;5.680;2023-03-30T16:33:09;18.8;45.3
78767;SHT31;68092;51.982;5.680;2023-03-30T16:35:38;18.7;45.7
78767;SHT31;68092;51.982;5.680;2023-03-30T16:38:08;18.7;46.1
78767;SHT31;68092;51.982;5.680;2023-03-30T16:40:43;18.6;46.1
78767;SHT31;68092;51.982;5.680;2023-03-30T16:43:13;18.6;45.8
78767;SHT31;68092;51.982;5.680;2023-03-30T16:45:42;18.6;46.2
78767;SHT31;68092;51.982;5.680;2023-03-30T16:48:13;18.6;46.4
78767;SHT31;68092;51.982;5.680;2023-03-30T16:50:46;18.5;46.8
78767;SHT31;68092;51.982;5.680;2023-03-30T16:53:18;18.5;46.9
78767;SHT31;68092;51.982;5.680;2023-03-30T16:55:47;18.5;47.1
78767;SHT31;68092;51.982;5.680;2023-03-30T16:58:17;18.5;47.2
78767;SHT31;68092;51.982;5.680;2023-03-30T17:00:49;18.5;47.3
78767;SHT31;68092;51.982;5.680;2023-03-30T17:03:20;18.5;47.0
78767;SHT31;68092;51.982;5.680;2023-03-30T17:05:49;18.4;47.4